sensor_id;sensor_type;location;lat;lon;timestamp;pressure;altitude;pressure_sealevel;temperature;humidity
22743;BME280;11538;48.884;8.696;2022-10-17T00:00:35;99237.38;;;15.18;100.00
22743;BME280;11538;48.884;8.696;2022-10-17T00:03:02;99234.63;;;15.18;100.00
22743;BME280;11538;48.884;8.696;2022-10-17T00:05:29;99239.28;;;15.17;100.00
22743;BME280;11538;48.884;8.696;2022-10-17T00:07:55;99240.75;;;15.15;100.00
22743;BME280;11538;48.884;8.696;2022-10-17T00:10:22;99242.66;;;15.14;100.00
22743;BME280;11538;48.884;8.696;2022-10-17T00:12:50;99243.13;;;15.16;100.00
22743;BME280;11538;48.884;8.696;2022-10-17T00:15:18;99240.88;;;15.18;100.00
22743;BME280;11538;48.884;8.696;2022-10-17T00:17:45;99247.66;;;15.21;100.00
22743;BME280;11538;48.884;8.696;2022-10-17T00:20:12;99253.78;;;15.27;100.00
22743;BME280;11538;48.884;8.696;2022-10-17T00:22:40;99250.09;;;15.31;100.00
22743;BME280;11538;48.884;8.696;2022-10-17T00:25:07;99251.69;;;15.32;100.00
22743;BME280;11538;48.884;8.696;2022-10-17T00:27:35;99253.78;;;15.27;100.00
22743;BME280;11538;48.884;8.696;2022-10-17T00:30:04;99257.63;;;15.17;100.00
22743;BME280;11538;48.884;8.696;2022-10-17T00:32:31;99268.06;;;15.15;100.00
22743;BME280;11538;48.884;8.696;2022-10-17T00:34:58;99264.84;;;15.13;100.00
22743;BME280;11538;48.884;8.696;2022-10-17T00:37:24;99270.94;;;15.10;100.00
22743;BME280;11538;48.884;8.696;2022-10-17T00:39:52;99263.69;;;15.05;100.00
22743;BME280;11538;48.884;8.696;2022-10-17T00:42:19;99264.19;;;15.07;100.00
22743;BME280;11538;48.884;8.696;2022-10-17T00:47:16;99261.13;;;15.09;100.00
22743;BME280;11538;48.884;8.696;2022-10-17T00:49:45;99260.03;;;15.10;100.00
22743;BME280;11538;48.884;8.696;2022-10-17T00:52:24;99258.91;;;15.11;100.00
22743;BME280;11538;48.884;8.696;2022-10-17T00:54:55;99269.97;;;15.05;100.00
22743;BME280;11538;48.884;8.696;2022-10-17T00:57:23;99269.00;;;15.01;100.00
22743;BME280;11538;48.884;8.696;2022-10-17T00:59:53;99262.22;;;14.99;100.00
22743;BME280;11538;48.884;8.696;2022-10-17T01:02:23;99270.75;;;14.97;100.00
22743;BME280;11538;48.884;8.696;2022-10-17T01:04:51;99272.03;;;15.00;100.00
22743;BME280;11538;48.884;8.696;2022-10-17T01:07:20;99273.97;;;14.99;100.00
22743;BME280;11538;48.884;8.696;2022-10-17T01:09:47;99268.47;;;14.90;100.00
22743;BME280;11538;48.884;8.696;2022-10-17T01:12:22;99278.59;;;14.90;100.00
22743;BME280;11538;48.884;8.696;2022-10-17T01:15:11;99270.91;;;14.92;100.00
22743;BME280;11538;48.884;8.696;2022-10-17T01:18:00;99277.16;;;14.93;100.00
22743;BME280;11538;48.884;8.696;2022-10-17T01:29:33;99280.41;;;15.03;100.00
22743;BME280;11538;48.884;8.696;2022-10-17T01:32:12;99281.69;;;15.06;100.00
22743;BME280;11538;48.884;8.696;2022-10-17T01:34:54;99286.66;;;15.04;100.00
22743;BME280;11538;48.884;8.696;2022-10-17T01:37:45;99285.06;;;15.03;100.00
22743;BME280;11538;48.884;8.696;2022-10-17T01:40:19;99289.72;;;15.02;100.00
22743;BME280;11538;48.884;8.696;2022-10-17T01:42:57;99282.50;;;15.06;100.00
22743;BME280;11538;48.884;8.696;2022-10-17T01:45:36;99289.25;;;15.09;100.00
22743;BME280;11538;48.884;8.696;2022-10-17T01:48:12;99286.22;;;15.11;100.00
22743;BME280;11538;48.884;8.696;2022-10-17T01:50:44;99284.25;;;15.02;100.00
22743;BME280;11538;48.884;8.696;2022-10-17T01:53:18;99283.44;;;14.93;100.00
22743;BME280;11538;48.884;8.696;2022-10-17T01:55:48;99276.19;;;14.88;100.00
22743;BME280;11538;48.884;8.696;2022-10-17T01:58:50;99267.69;;;14.90;100.00
22743;BME280;11538;48.884;8.696;2022-10-17T02:01:19;99268.63;;;14.85;100.00
22743;BME280;11538;48.884;8.696;2022-10-17T02:03:49;99272.63;;;14.79;100.00
22743;BME280;11538;48.884;8.696;2022-10-17T02:06:16;99264.25;;;14.75;100.00
22743;BME280;11538;48.884;8.696;2022-10-17T02:08:49;99267.78;;;14.76;100.00
22743;BME280;11538;48.884;8.696;2022-10-17T02:11:24;99271.97;;;14.73;100.00
22743;BME280;11538;48.884;8.696;2022-10-17T02:16:51;99265.63;;;14.64;100.00
22743;BME280;11538;48.884;8.696;2022-10-17T02:19:40;99275.56;;;14.60;100.00
22743;BME280;11538;48.884;8.696;2022-10-17T02:22:15;99270.59;;;14.62;100.00
22743;BME280;11538;48.884;8.696;2022-10-17T02:24:49;99266.91;;;14.58;100.00
22743;BME280;11538;48.884;8.696;2022-10-17T02:27:28;99262.84;;;14.55;100.00
22743;BME280;11538;48.884;8.696;2022-10-17T02:30:09;99272.97;;;14.55;100.00
22743;BME280;11538;48.884;8.696;2022-10-17T02:32:40;99267.16;;;14.47;100.00
22743;BME280;11538;48.884;8.696;2022-10-17T02:35:15;99271.97;;;14.51;100.00
22743;BME280;11538;48.884;8.696;2022-10-17T02:37:44;99271.00;;;14.46;100.00
22743;BME280;11538;48.884;8.696;2022-10-17T02:40:14;99280.00;;;14.47;100.00
22743;BME280;11538;48.884;8.696;2022-10-17T02:42:44;99276.28;;;14.43;100.00
22743;BME280;11538;48.884;8.696;2022-10-17T02:45:12;99277.72;;;14.40;100.00
22743;BME280;11538;48.884;8.696;2022-10-17T02:48:02;99285.91;;;14.40;100.00
22743;BME280;11538;48.884;8.696;2022-10-17T02:50:51;99279.94;;;14.38;100.00
22743;BME280;11538;48.884;8.696;2022-10-17T02:56:52;99275.25;;;14.30;100.00
22743;BME280;11538;48.884;8.696;2022-10-17T02:59:21;99284.06;;;14.27;100.00
22743;BME280;11538;48.884;8.696;2022-10-17T03:01:51;99280.84;;;14.25;100.00
22743;BME280;11538;48.884;8.696;2022-10-17T03:04:18;99278.44;;;14.23;100.00
22743;BME280;11538;48.884;8.696;2022-10-17T03:06:46;99284.69;;;14.24;100.00
22743;BME280;11538;48.884;8.696;2022-10-17T03:09:14;99280.53;;;14.26;100.00
22743;BME280;11538;48.884;8.696;2022-10-17T03:11:41;99284.69;;;14.24;100.00
22743;BME280;11538;48.884;8.696;2022-10-17T03:14:07;99286.91;;;14.22;100.00
22743;BME280;11538;48.884;8.696;2022-10-17T03:16:34;99288.16;;;14.15;100.00
22743;BME280;11538;48.884;8.696;2022-10-17T03:19:01;99285.94;;;14.17;100.00
22743;BME280;11538;48.884;8.696;2022-10-17T03:21:27;99286.00;;;14.26;100.00
22743;BME280;11538;48.884;8.696;2022-10-17T03:23:54;99286.63;;;14.23;100.00
22743;BME280;11538;48.884;8.696;2022-10-17T03:26:21;99283.06;;;14.23;100.00
22743;BME280;11538;48.884;8.696;2022-10-17T03:28:48;99287.72;;;14.22;100.00
22743;BME280;11538;48.884;8.696;2022-10-17T03:31:20;99278.56;;;14.18;100.00
22743;BME280;11538;48.884;8.696;2022-10-17T03:33:47;99286.88;;;14.13;100.00
22743;BME280;11538;48.884;8.696;2022-10-17T03:36:16;99285.13;;;14.17;100.00
22743;BME280;11538;48.884;8.696;2022-10-17T03:38:44;99275.28;;;14.07;100.00
22743;BME280;11538;48.884;8.696;2022-10-17T03:41:11;99285.69;;;14.05;100.00
22743;BME280;11538;48.884;8.696;2022-10-17T03:43:38;99283.59;;;14.02;100.00
22743;BME280;11538;48.884;8.696;2022-10-17T03:46:07;99292.59;;;14.02;100.00
22743;BME280;11538;48.884;8.696;2022-10-17T03:48:34;99292.72;;;13.97;100.00
22743;BME280;11538;48.884;8.696;2022-10-17T03:51:03;99296.22;;;13.98;100.00
22743;BME280;11538;48.884;8.696;2022-10-17T03:53:31;99298.97;;;13.98;100.00
22743;BME280;11538;48.884;8.696;2022-10-17T03:56:28;99308.09;;;13.93;100.00
22743;BME280;11538;48.884;8.696;2022-10-17T03:58:55;99312.41;;;13.94;100.00
22743;BME280;11538;48.884;8.696;2022-10-17T04:01:22;99307.88;;;13.89;100.00
22743;BME280;11538;48.884;8.696;2022-10-17T04:03:51;99315.06;;;13.85;100.00
22743;BME280;11538;48.884;8.696;2022-10-17T04:06:19;99315.19;;;13.80;100.00
22743;BME280;11538;48.884;8.696;2022-10-17T04:08:46;99313.56;;;13.79;100.00
22743;BME280;11538;48.884;8.696;2022-10-17T04:11:16;99320.81;;;13.84;100.00
22743;BME280;11538;48.884;8.696;2022-10-17T04:13:44;99329.81;;;13.84;100.00
22743;BME280;11538;48.884;8.696;2022-10-17T04:16:13;99323.25;;;13.85;100.00
22743;BME280;11538;48.884;8.696;2022-10-17T04:18:41;99328.88;;;13.89;100.00
22743;BME280;11538;48.884;8.696;2022-10-17T04:21:09;99335.16;;;13.89;100.00
22743;BME280;11538;48.884;8.696;2022-10-17T04:23:36;99336.38;;;13.83;100.00
22743;BME280;11538;48.884;8.696;2022-10-17T04:26:03;99331.53;;;13.80;100.00
22743;BME280;11538;48.884;8.696;2022-10-17T04:28:31;99336.19;;;13.80;100.00
22743;BME280;11538;48.884;8.696;2022-10-17T04:31:04;99330.72;;;13.80;100.00
22743;BME280;11538;48.884;8.696;2022-10-17T04:33:31;99337.16;;;13.84;100.00
22743;BME280;11538;48.884;8.696;2022-10-17T04:36:00;99332.03;;;13.82;100.00
22743;BME280;11538;48.884;8.696;2022-10-17T04:38:28;99337.00;;;13.80;100.00
22743;BME280;11538;48.884;8.696;2022-10-17T04:40:59;99337.28;;;13.79;100.00
22743;BME280;11538;48.884;8.696;2022-10-17T04:43:33;99340.25;;;13.68;100.00
22743;BME280;11538;48.884;8.696;2022-10-17T04:46:03;99329.16;;;13.65;100.00
22743;BME280;11538;48.884;8.696;2022-10-17T04:48:30;99333.63;;;13.60;100.00
22743;BME280;11538;48.884;8.696;2022-10-17T04:50:59;99327.56;;;13.64;100.00
22743;BME280;11538;48.884;8.696;2022-10-17T04:53:27;99333.28;;;13.62;100.00
22743;BME280;11538;48.884;8.696;2022-10-17T04:55:54;99331.91;;;13.65;100.00
22743;BME280;11538;48.884;8.696;2022-10-17T04:58:21;99329.47;;;13.63;100.00
22743;BME280;11538;48.884;8.696;2022-10-17T05:00:47;99338.47;;;13.64;100.00
22743;BME280;11538;48.884;8.696;2022-10-17T05:03:15;99341.69;;;13.66;100.00
22743;BME280;11538;48.884;8.696;2022-10-17T05:05:42;99343.91;;;13.64;100.00
22743;BME280;11538;48.884;8.696;2022-10-17T05:08:09;99339.06;;;13.60;100.00
22743;BME280;11538;48.884;8.696;2022-10-17T05:10:42;99343.28;;;13.67;100.00
22743;BME280;11538;48.884;8.696;2022-10-17T05:13:09;99339.47;;;13.68;100.00
22743;BME280;11538;48.884;8.696;2022-10-17T05:15:36;99348.88;;;13.62;100.00
22743;BME280;11538;48.884;8.696;2022-10-17T05:18:04;99334.84;;;13.54;100.00
22743;BME280;11538;48.884;8.696;2022-10-17T05:20:32;99336.47;;;13.55;100.00
22743;BME280;11538;48.884;8.696;2022-10-17T05:22:59;99335.47;;;13.51;100.00
22743;BME280;11538;48.884;8.696;2022-10-17T05:25:26;99342.63;;;13.47;100.00
22743;BME280;11538;48.884;8.696;2022-10-17T05:27:53;99339.41;;;13.45;100.00
22743;BME280;11538;48.884;8.696;2022-10-17T05:30:20;99340.53;;;13.44;100.00
22743;BME280;11538;48.884;8.696;2022-10-17T05:32:46;99345.97;;;13.44;100.00
22743;BME280;11538;48.884;8.696;2022-10-17T05:35:13;99345.97;;;13.44;100.00
22743;BME280;11538;48.884;8.696;2022-10-17T05:37:40;99349.81;;;13.43;100.00
22743;BME280;11538;48.884;8.696;2022-10-17T05:40:07;99355.25;;;13.43;100.00
22743;BME280;11538;48.884;8.696;2022-10-17T05:42:34;99355.94;;;13.35;100.00
22743;BME280;11538;48.884;8.696;2022-10-17T05:45:01;99357.06;;;13.34;100.00
22743;BME280;11538;48.884;8.696;2022-10-17T05:47:27;99359.78;;;13.34;100.00
22743;BME280;11538;48.884;8.696;2022-10-17T05:49:55;99360.47;;;13.39;100.00
22743;BME280;11538;48.884;8.696;2022-10-17T05:52:21;99362.31;;;13.44;100.00
22743;BME280;11538;48.884;8.696;2022-10-17T05:54:48;99360.38;;;13.44;100.00
22743;BME280;11538;48.884;8.696;2022-10-17T05:57:15;99359.59;;;13.44;100.00
22743;BME280;11538;48.884;8.696;2022-10-17T05:59:41;99361.56;;;13.38;100.00
22743;BME280;11538;48.884;8.696;2022-10-17T06:02:11;99370.06;;;13.37;100.00
22743;BME280;11538;48.884;8.696;2022-10-17T06:04:38;99367.84;;;13.39;100.00
22743;BME280;11538;48.884;8.696;2022-10-17T06:07:14;99367.03;;;13.38;100.00
22743;BME280;11538;48.884;8.696;2022-10-17T06:09:42;99368.63;;;13.39;100.00
22743;BME280;11538;48.884;8.696;2022-10-17T06:12:08;99382.19;;;13.44;100.00
22743;BME280;11538;48.884;8.696;2022-10-17T06:14:35;99371.88;;;13.41;100.00
22743;BME280;11538;48.884;8.696;2022-10-17T06:17:02;99381.97;;;13.41;100.00
22743;BME280;11538;48.884;8.696;2022-10-17T06:19:29;99385.81;;;13.40;100.00
22743;BME280;11538;48.884;8.696;2022-10-17T06:21:56;99387.94;;;13.43;100.00
22743;BME280;11538;48.884;8.696;2022-10-17T06:24:22;99391.97;;;13.45;100.00
22743;BME280;11538;48.884;8.696;2022-10-17T06:26:49;99397.94;;;13.48;100.00
22743;BME280;11538;48.884;8.696;2022-10-17T06:29:16;99396.72;;;13.40;100.00
22743;BME280;11538;48.884;8.696;2022-10-17T06:31:43;99384.28;;;13.34;100.00
22743;BME280;11538;48.884;8.696;2022-10-17T06:34:10;99396.59;;;13.31;100.00
22743;BME280;11538;48.884;8.696;2022-10-17T06:36:36;99393.88;;;13.31;100.00
22743;BME280;11538;48.884;8.696;2022-10-17T06:39:03;99399.03;;;13.33;100.00
22743;BME280;11538;48.884;8.696;2022-10-17T06:41:30;99394.78;;;13.40;100.00
22743;BME280;11538;48.884;8.696;2022-10-17T06:43:57;99406.94;;;13.48;100.00
22743;BME280;11538;48.884;8.696;2022-10-17T06:46:23;99415.50;;;13.55;100.00
22743;BME280;11538;48.884;8.696;2022-10-17T06:48:52;99412.06;;;13.64;100.00
22743;BME280;11538;48.884;8.696;2022-10-17T06:51:19;99420.91;;;13.69;100.00
22743;BME280;11538;48.884;8.696;2022-10-17T06:53:46;99413.06;;;13.68;100.00
22743;BME280;11538;48.884;8.696;2022-10-17T06:56:12;99423.47;;;13.66;100.00
22743;BME280;11538;48.884;8.696;2022-10-17T06:58:40;99419.00;;;13.70;100.00
22743;BME280;11538;48.884;8.696;2022-10-17T07:01:09;99425.66;;;13.78;100.00
22743;BME280;11538;48.884;8.696;2022-10-17T07:03:38;99428.97;;;13.88;100.00
22743;BME280;11538;48.884;8.696;2022-10-17T07:06:05;99421.06;;;14.01;100.00
22743;BME280;11538;48.884;8.696;2022-10-17T07:08:32;99427.41;;;14.10;100.00
22743;BME280;11538;48.884;8.696;2022-10-17T07:11:08;99437.41;;;14.15;100.00
22743;BME280;11538;48.884;8.696;2022-10-17T07:13:34;99442.94;;;14.24;100.00
22743;BME280;11538;48.884;8.696;2022-10-17T07:16:05;99441.09;;;14.33;100.00
22743;BME280;11538;48.884;8.696;2022-10-17T07:18:32;99436.81;;;14.41;100.00
22743;BME280;11538;48.884;8.696;2022-10-17T07:20:59;99440.72;;;14.48;100.00
22743;BME280;11538;48.884;8.696;2022-10-17T07:23:26;99448.16;;;14.57;100.00
22743;BME280;11538;48.884;8.696;2022-10-17T07:25:58;99444.53;;;14.61;100.00
22743;BME280;11538;48.884;8.696;2022-10-17T07:28:25;99445.22;;;14.67;100.00
22743;BME280;11538;48.884;8.696;2022-10-17T07:30:52;99456.34;;;14.71;100.00
22743;BME280;11538;48.884;8.696;2022-10-17T07:33:20;99448.34;;;14.74;100.00
22743;BME280;11538;48.884;8.696;2022-10-17T07:35:47;99444.84;;;14.83;100.00
22743;BME280;11538;48.884;8.696;2022-10-17T07:38:14;99447.13;;;14.89;100.00
22743;BME280;11538;48.884;8.696;2022-10-17T07:40:41;99437.88;;;14.99;100.00
22743;BME280;11538;48.884;8.696;2022-10-17T07:43:08;99445.47;;;15.11;100.00
22743;BME280;11538;48.884;8.696;2022-10-17T07:45:35;99442.38;;;15.27;100.00
22743;BME280;11538;48.884;8.696;2022-10-17T07:48:02;99449.31;;;15.42;100.00
22743;BME280;11538;48.884;8.696;2022-10-17T07:50:29;99455.19;;;15.58;100.00
22743;BME280;11538;48.884;8.696;2022-10-17T07:52:57;99463.25;;;15.72;100.00
22743;BME280;11538;48.884;8.696;2022-10-17T07:55:24;99461.03;;;15.83;100.00
22743;BME280;11538;48.884;8.696;2022-10-17T07:57:50;99458.66;;;15.90;100.00
22743;BME280;11538;48.884;8.696;2022-10-17T08:00:17;99446.28;;;16.01;100.00
22743;BME280;11538;48.884;8.696;2022-10-17T08:02:44;99457.09;;;16.15;100.00
22743;BME280;11538;48.884;8.696;2022-10-17T08:05:11;99457.91;;;16.33;100.00
22743;BME280;11538;48.884;8.696;2022-10-17T08:07:37;99461.63;;;16.46;100.00
22743;BME280;11538;48.884;8.696;2022-10-17T08:10:04;99463.72;;;16.58;100.00
22743;BME280;11538;48.884;8.696;2022-10-17T08:12:31;99462.25;;;16.61;100.00
22743;BME280;11538;48.884;8.696;2022-10-17T08:15:00;99464.00;;;16.74;100.00
22743;BME280;11538;48.884;8.696;2022-10-17T08:17:27;99468.19;;;16.98;100.00
22743;BME280;11538;48.884;8.696;2022-10-17T08:19:53;99462.34;;;17.17;99.73
22743;BME280;11538;48.884;8.696;2022-10-17T08:22:20;99469.53;;;17.39;97.61
22743;BME280;11538;48.884;8.696;2022-10-17T08:24:47;99478.66;;;17.52;97.08
22743;BME280;11538;48.884;8.696;2022-10-17T08:27:14;99459.31;;;17.49;97.08
22743;BME280;11538;48.884;8.696;2022-10-17T08:29:41;99461.53;;;17.56;96.96
22743;BME280;11538;48.884;8.696;2022-10-17T08:32:07;99455.53;;;17.62;98.30
22743;BME280;11538;48.884;8.696;2022-10-17T08:34:36;99456.97;;;17.68;97.60
22743;BME280;11538;48.884;8.696;2022-10-17T08:37:02;99467.09;;;17.77;97.32
22743;BME280;11538;48.884;8.696;2022-10-17T08:39:29;99465.25;;;17.90;97.82
22743;BME280;11538;48.884;8.696;2022-10-17T08:47:43;99474.13;;;18.59;94.26
22743;BME280;11538;48.884;8.696;2022-10-17T08:50:35;99464.59;;;18.90;94.54
22743;BME280;11538;48.884;8.696;2022-10-17T08:53:29;99470.41;;;19.10;94.49
22743;BME280;11538;48.884;8.696;2022-10-17T08:55:53;99464.00;;;19.18;91.49
22743;BME280;11538;48.884;8.696;2022-10-17T08:58:27;99465.38;;;19.12;93.04
22743;BME280;11538;48.884;8.696;2022-10-17T09:01:05;99466.19;;;19.12;92.56
22743;BME280;11538;48.884;8.696;2022-10-17T09:06:26;99469.28;;;19.11;92.48
22743;BME280;11538;48.884;8.696;2022-10-17T09:12:15;99462.31;;;19.76;93.15
22743;BME280;11538;48.884;8.696;2022-10-17T09:18:08;99467.59;;;20.18;91.06
22743;BME280;11538;48.884;8.696;2022-10-17T09:20:54;99466.69;;;20.14;86.68
22743;BME280;11538;48.884;8.696;2022-10-17T09:23:40;99463.69;;;20.19;91.37
22743;BME280;11538;48.884;8.696;2022-10-17T09:26:10;99454.97;;;20.45;92.14
22743;BME280;11538;48.884;8.696;2022-10-17T09:28:39;99454.78;;;20.67;87.34
22743;BME280;11538;48.884;8.696;2022-10-17T09:31:17;99467.69;;;20.91;89.45
22743;BME280;11538;48.884;8.696;2022-10-17T09:33:47;99470.53;;;20.95;85.67
22743;BME280;11538;48.884;8.696;2022-10-17T09:36:22;99462.56;;;21.06;89.06
22743;BME280;11538;48.884;8.696;2022-10-17T09:38:56;99464.25;;;21.26;87.27
22743;BME280;11538;48.884;8.696;2022-10-17T09:41:31;99462.94;;;21.36;84.51
22743;BME280;11538;48.884;8.696;2022-10-17T09:46:49;99466.59;;;21.72;84.65
22743;BME280;11538;48.884;8.696;2022-10-17T09:49:27;99481.59;;;21.91;85.00
22743;BME280;11538;48.884;8.696;2022-10-17T09:51:54;99478.38;;;22.05;84.32
22743;BME280;11538;48.884;8.696;2022-10-17T09:54:22;99473.00;;;22.12;83.89
22743;BME280;11538;48.884;8.696;2022-10-17T09:57:05;99479.63;;;22.27;83.65
22743;BME280;11538;48.884;8.696;2022-10-17T09:59:35;99480.22;;;22.37;80.87
22743;BME280;11538;48.884;8.696;2022-10-17T10:02:23;99481.44;;;22.55;81.77
22743;BME280;11538;48.884;8.696;2022-10-17T10:07:32;99478.97;;;22.70;80.86
22743;BME280;11538;48.884;8.696;2022-10-17T10:10:00;99476.19;;;22.70;79.49
22743;BME280;11538;48.884;8.696;2022-10-17T10:12:37;99486.38;;;22.66;83.07
22743;BME280;11538;48.884;8.696;2022-10-17T10:15:37;99488.72;;;22.63;80.82
22743;BME280;11538;48.884;8.696;2022-10-17T10:23:36;99493.25;;;22.95;78.54
22743;BME280;11538;48.884;8.696;2022-10-17T10:28:55;99499.34;;;23.47;80.28
22743;BME280;11538;48.884;8.696;2022-10-17T10:31:35;99499.22;;;23.63;79.96
22743;BME280;11538;48.884;8.696;2022-10-17T10:34:14;99499.88;;;23.80;80.13
22743;BME280;11538;48.884;8.696;2022-10-17T10:36:44;99500.66;;;24.04;76.94
22743;BME280;11538;48.884;8.696;2022-10-17T10:39:28;99508.06;;;24.23;75.77
22743;BME280;11538;48.884;8.696;2022-10-17T10:41:56;99508.19;;;24.34;75.21
22743;BME280;11538;48.884;8.696;2022-10-17T10:44:26;99510.78;;;24.50;74.40
22743;BME280;11538;48.884;8.696;2022-10-17T10:47:14;99507.94;;;24.73;73.72
22743;BME280;11538;48.884;8.696;2022-10-17T10:49:43;99514.88;;;24.94;70.67
22743;BME280;11538;48.884;8.696;2022-10-17T10:52:20;99508.34;;;25.13;71.33
22743;BME280;11538;48.884;8.696;2022-10-17T10:55:13;99502.66;;;25.40;69.23
22743;BME280;11538;48.884;8.696;2022-10-17T10:57:42;99498.09;;;25.59;65.06
22743;BME280;11538;48.884;8.696;2022-10-17T11:00:15;99491.59;;;25.92;66.21
22743;BME280;11538;48.884;8.696;2022-10-17T11:05:47;99500.97;;;26.33;61.61
22743;BME280;11538;48.884;8.696;2022-10-17T11:08:28;99503.50;;;26.63;59.78
22743;BME280;11538;48.884;8.696;2022-10-17T11:11:24;99503.13;;;26.76;60.90
22743;BME280;11538;48.884;8.696;2022-10-17T11:14:00;99500.06;;;27.24;56.91
22743;BME280;11538;48.884;8.696;2022-10-17T11:22:04;99492.50;;;28.01;59.25
22743;BME280;11538;48.884;8.696;2022-10-17T11:24:38;99494.94;;;27.92;55.41
22743;BME280;11538;48.884;8.696;2022-10-17T11:27:08;99494.13;;;27.87;54.39
22743;BME280;11538;48.884;8.696;2022-10-17T11:29:40;99499.63;;;28.27;57.59
22743;BME280;11538;48.884;8.696;2022-10-17T11:32:14;99504.69;;;28.62;53.71
22743;BME280;11538;48.884;8.696;2022-10-17T11:34:49;99506.94;;;28.92;54.11
22743;BME280;11538;48.884;8.696;2022-10-17T11:37:20;99503.47;;;29.41;56.38
22743;BME280;11538;48.884;8.696;2022-10-17T11:39:59;99504.00;;;29.74;53.12
22743;BME280;11538;48.884;8.696;2022-10-17T11:42:36;99501.97;;;29.74;49.44
22743;BME280;11538;48.884;8.696;2022-10-17T11:45:12;99504.69;;;29.85;50.61
22743;BME280;11538;48.884;8.696;2022-10-17T11:47:45;99504.75;;;29.78;48.14
22743;BME280;11538;48.884;8.696;2022-10-17T11:50:22;99493.69;;;29.64;47.17
22743;BME280;11538;48.884;8.696;2022-10-17T11:53:13;99498.47;;;29.63;44.38
22743;BME280;11538;48.884;8.696;2022-10-17T11:55:42;99497.66;;;30.12;42.26
22743;BME280;11538;48.884;8.696;2022-10-17T11:58:20;99508.22;;;30.31;41.61
22743;BME280;11538;48.884;8.696;2022-10-17T12:03:50;99519.44;;;30.28;42.22
22743;BME280;11538;48.884;8.696;2022-10-17T12:06:35;99519.91;;;30.61;39.78
22743;BME280;11538;48.884;8.696;2022-10-17T12:09:20;99517.81;;;30.96;38.85
22743;BME280;11538;48.884;8.696;2022-10-17T12:11:56;99507.97;;;30.84;39.01
22743;BME280;11538;48.884;8.696;2022-10-17T12:14:45;99508.66;;;31.23;39.12
22743;BME280;11538;48.884;8.696;2022-10-17T12:19:48;99508.22;;;30.97;38.35
22743;BME280;11538;48.884;8.696;2022-10-17T12:22:25;99512.13;;;31.03;37.12
22743;BME280;11538;48.884;8.696;2022-10-17T12:24:55;99519.59;;;31.10;37.31
22743;BME280;11538;48.884;8.696;2022-10-17T12:27:42;99516.66;;;31.25;36.32
22743;BME280;11538;48.884;8.696;2022-10-17T12:35:36;99510.75;;;31.15;34.81
22743;BME280;11538;48.884;8.696;2022-10-17T12:38:21;99509.69;;;31.05;35.17
22743;BME280;11538;48.884;8.696;2022-10-17T12:40:50;99505.66;;;31.06;34.96
22743;BME280;11538;48.884;8.696;2022-10-17T12:45:54;99511.13;;;30.90;35.08
22743;BME280;11538;48.884;8.696;2022-10-17T12:51:09;99520.34;;;30.87;37.24
22743;BME280;11538;48.884;8.696;2022-10-17T12:54:10;99520.75;;;30.85;35.28
22743;BME280;11538;48.884;8.696;2022-10-17T12:56:47;99517.19;;;30.85;34.85
22743;BME280;11538;48.884;8.696;2022-10-17T12:59:29;99516.94;;;30.72;34.95
22743;BME280;11538;48.884;8.696;2022-10-17T13:01:58;99520.72;;;30.58;34.79
22743;BME280;11538;48.884;8.696;2022-10-17T13:04:35;99519.97;;;30.54;35.24
22743;BME280;11538;48.884;8.696;2022-10-17T13:07:02;99517.31;;;30.74;35.31
22743;BME280;11538;48.884;8.696;2022-10-17T13:09:36;99512.28;;;30.61;35.76
22743;BME280;11538;48.884;8.696;2022-10-17T13:12:10;99529.50;;;30.60;36.11
22743;BME280;11538;48.884;8.696;2022-10-17T13:14:41;99527.28;;;30.40;36.12
22743;BME280;11538;48.884;8.696;2022-10-17T13:17:27;99521.28;;;30.42;36.24
22743;BME280;11538;48.884;8.696;2022-10-17T13:19:55;99518.69;;;30.58;35.89
22743;BME280;11538;48.884;8.696;2022-10-17T13:22:28;99523.97;;;30.53;35.36
22743;BME280;11538;48.884;8.696;2022-10-17T13:25:14;99520.19;;;30.32;36.01
22743;BME280;11538;48.884;8.696;2022-10-17T13:27:42;99519.34;;;30.00;36.77
22743;BME280;11538;48.884;8.696;2022-10-17T13:30:29;99512.72;;;29.30;38.11
22743;BME280;11538;48.884;8.696;2022-10-17T13:32:59;99519.66;;;29.04;38.50
22743;BME280;11538;48.884;8.696;2022-10-17T13:35:33;99518.78;;;29.11;38.54
22743;BME280;11538;48.884;8.696;2022-10-17T13:38:26;99521.91;;;29.27;38.62
22743;BME280;11538;48.884;8.696;2022-10-17T13:40:54;99529.13;;;29.21;38.68
22743;BME280;11538;48.884;8.696;2022-10-17T13:43:45;99523.88;;;29.30;38.78
22743;BME280;11538;48.884;8.696;2022-10-17T13:46:40;99512.88;;;29.01;39.30
22743;BME280;11538;48.884;8.696;2022-10-17T13:52:04;99523.09;;;28.44;39.39
22743;BME280;11538;48.884;8.696;2022-10-17T13:54:34;99521.56;;;28.18;39.83
22743;BME280;11538;48.884;8.696;2022-10-17T13:57:03;99516.38;;;28.20;39.60
22743;BME280;11538;48.884;8.696;2022-10-17T13:59:40;99514.41;;;28.06;40.33
22743;BME280;11538;48.884;8.696;2022-10-17T14:02:23;99522.00;;;27.51;41.29
22743;BME280;11538;48.884;8.696;2022-10-17T14:05:01;99514.78;;;27.07;42.37
22743;BME280;11538;48.884;8.696;2022-10-17T14:07:50;99512.25;;;26.65;43.97
22743;BME280;11538;48.884;8.696;2022-10-17T14:10:38;99511.72;;;26.41;45.15
22743;BME280;11538;48.884;8.696;2022-10-17T14:13:07;99508.50;;;26.32;44.62
22743;BME280;11538;48.884;8.696;2022-10-17T14:15:35;99515.56;;;26.19;44.77
22743;BME280;11538;48.884;8.696;2022-10-17T14:18:04;99512.28;;;26.02;45.83
22743;BME280;11538;48.884;8.696;2022-10-17T14:20:36;99499.31;;;25.65;47.35
22743;BME280;11538;48.884;8.696;2022-10-17T14:23:31;99518.28;;;25.55;47.74
22743;BME280;11538;48.884;8.696;2022-10-17T14:28:35;99508.66;;;25.46;47.92
22743;BME280;11538;48.884;8.696;2022-10-17T14:31:20;99510.22;;;25.43;49.30
22743;BME280;11538;48.884;8.696;2022-10-17T14:33:48;99515.31;;;25.37;47.87
22743;BME280;11538;48.884;8.696;2022-10-17T14:36:18;99520.72;;;25.19;48.94